createdAt,value
2023-05-03T00:01:11.274Z,102440.50
2023-05-03T00:03:38.215Z,102451.69
2023-05-03T00:06:12.608Z,102445.63
2023-05-03T00:08:39.622Z,102445.63
2023-05-03T00:11:06.758Z,102452.53
2023-05-03T00:13:33.671Z,102455.88
2023-05-03T00:16:01.067Z,102449.72
2023-05-03T00:18:29.044Z,102443.47
2023-05-03T00:20:57.003Z,102453.94
2023-05-03T00:23:24.058Z,102452.13
2023-05-03T00:25:58.190Z,102446.00
2023-05-03T00:28:26.154Z,102441.53
2023-05-03T00:30:53.631Z,102428.25
2023-05-03T00:33:20.597Z,102429.16
2023-05-03T00:35:47.476Z,102447.44
2023-05-03T00:38:15.441Z,102445.66
2023-05-03T00:40:43.046Z,102436.03
2023-05-03T00:43:13.146Z,102436.66
2023-05-03T00:45:40.183Z,102436.78
2023-05-03T00:48:07.229Z,102432.44
2023-05-03T00:50:36.667Z,102434.06
2023-05-03T00:53:03.711Z,102432.31
2023-05-03T00:55:33.638Z,102434.81
2023-05-03T00:58:00.540Z,102433.06
2023-05-03T01:00:27.504Z,102432.94
2023-05-03T01:02:54.650Z,102430.34
2023-05-03T01:05:22.948Z,102429.41
2023-05-03T01:08:15.617Z,102433.63
2023-05-03T01:10:56.694Z,102428.06
2023-05-03T01:13:59.435Z,102436.63
2023-05-03T01:16:41.208Z,102441.06
2023-05-03T01:19:20.122Z,102452.16
2023-05-03T01:22:02.222Z,102447.72
2023-05-03T01:24:32.004Z,102451.09
2023-05-03T01:26:59.355Z,102450.19
2023-05-03T01:29:26.313Z,102453.56
2023-05-03T01:32:21.608Z,102453.44
2023-05-03T01:35:04.500Z,102462.06
2023-05-03T01:37:32.956Z,102460.25
2023-05-03T01:40:07.517Z,102459.28
2023-05-03T01:42:36.958Z,102460.94
2023-05-03T01:45:05.731Z,102464.34
2023-05-03T01:47:33.069Z,102473.75
2023-05-03T01:50:00.154Z,102470.19
2023-05-03T01:52:27.554Z,102469.19
2023-05-03T01:54:54.479Z,102472.66
2023-05-03T01:57:21.418Z,102470.03
2023-05-03T01:59:48.707Z,102465.38
2023-05-03T02:02:15.702Z,102469.81
2023-05-03T02:04:42.859Z,102462.78
2023-05-03T02:07:09.973Z,102464.50
2023-05-03T02:09:36.874Z,102474.78
2023-05-03T02:12:03.907Z,102474.63
2023-05-03T02:14:32.966Z,102455.22
2023-05-03T02:17:00.616Z,102469.25
2023-05-03T02:19:27.641Z,102478.78
2023-05-03T02:21:54.570Z,102475.22
2023-05-03T02:24:23.742Z,102474.28
2023-05-03T02:26:50.998Z,102474.19
2023-05-03T02:29:17.908Z,102478.41
2023-05-03T02:31:45.751Z,102474.94
2023-05-03T02:34:12.677Z,102474.06
2023-05-03T02:36:39.645Z,102477.47
2023-05-03T02:39:06.815Z,102476.53
2023-05-03T02:41:33.786Z,102471.25
2023-05-03T02:44:01.007Z,102472.97
2023-05-03T02:46:28.148Z,102465.50
2023-05-03T02:48:55.080Z,102480.59
2023-05-03T02:51:21.996Z,102476.22
2023-05-03T02:53:49.207Z,102490.00
2023-05-03T02:56:16.152Z,102489.03
2023-05-03T02:58:43.124Z,102487.94
2023-05-03T03:01:11.477Z,102500.13
2023-05-03T03:03:38.688Z,102504.25
2023-05-03T03:06:05.951Z,102503.38
2023-05-03T03:08:36.857Z,102502.50
2023-05-03T03:11:06.141Z,102499.81
2023-05-03T03:13:33.844Z,102492.75
2023-05-03T03:16:02.202Z,102490.16
2023-05-03T03:18:29.093Z,102496.13
2023-05-03T03:20:55.998Z,102496.97
2023-05-03T03:23:22.943Z,102491.50
2023-05-03T03:25:49.867Z,102489.94
2023-05-03T03:28:17.618Z,102495.94
2023-05-03T03:30:45.193Z,102494.97
2023-05-03T03:33:24.423Z,102493.19
2023-05-03T03:35:59.865Z,102494.66
2023-05-03T03:38:36.351Z,102504.28
2023-05-03T03:41:07.975Z,102505.09
2023-05-03T03:43:35.358Z,102497.34
2023-05-03T03:46:07.939Z,102500.72
2023-05-03T03:48:34.997Z,102500.81
2023-05-03T03:51:01.906Z,102505.19
2023-05-03T03:53:36.581Z,102503.53
2023-05-03T03:56:04.766Z,102500.94
2023-05-03T03:58:32.342Z,102511.38
2023-05-03T04:01:00.746Z,102510.66
2023-05-03T04:03:28.941Z,102522.25
2023-05-03T04:05:55.929Z,102521.97
2023-05-03T04:08:22.860Z,102520.97
2023-05-03T04:10:50.721Z,102523.63
2023-05-03T04:13:18.392Z,102514.16
2023-05-03T04:15:49.611Z,102519.44
2023-05-03T04:18:16.743Z,102518.69
2023-05-03T04:20:43.839Z,102518.41
2023-05-03T04:23:11.051Z,102527.34
2023-05-03T04:25:38.797Z,102530.06
2023-05-03T04:28:11.673Z,102528.38
2023-05-03T04:30:44.504Z,102538.00
2023-05-03T04:33:13.829Z,102525.72
2023-05-03T04:35:41.521Z,102532.88
2023-05-03T04:38:12.544Z,102533.81
2023-05-03T04:40:41.020Z,102539.16
2023-05-03T04:43:09.876Z,102540.19
2023-05-03T04:45:41.719Z,102529.63
2023-05-03T04:48:12.956Z,102543.84
2023-05-03T04:50:40.973Z,102545.69
2023-05-03T04:53:10.725Z,102552.84
2023-05-03T04:55:41.617Z,102555.56
2023-05-03T04:58:09.270Z,102564.38
2023-05-03T05:00:37.803Z,102549.50
2023-05-03T05:03:11.810Z,102561.97
2023-05-03T05:05:39.463Z,102558.69
2023-05-03T05:08:08.838Z,102560.59
2023-05-03T05:10:44.074Z,102566.78
2023-05-03T05:13:15.524Z,102572.19
2023-05-03T05:15:42.535Z,102566.22
2023-05-03T05:18:11.474Z,102568.94
2023-05-03T05:20:40.471Z,102572.56
2023-05-03T05:23:08.261Z,102565.78
2023-05-03T05:25:35.775Z,102573.66
2023-05-03T05:28:03.723Z,102573.69
2023-05-03T05:30:31.488Z,102577.25
2023-05-03T05:32:59.137Z,102574.00
2023-05-03T05:35:26.271Z,102590.63
2023-05-03T05:37:53.173Z,102594.16
2023-05-03T05:40:20.225Z,102589.97
2023-05-03T05:42:52.156Z,102595.34
2023-05-03T05:45:21.204Z,102581.34
2023-05-03T05:47:48.998Z,102600.88
2023-05-03T05:50:18.509Z,102590.38
2023-05-03T05:52:53.030Z,102605.38
2023-05-03T05:57:48.370Z,102606.69
2023-05-03T06:00:19.667Z,102612.09
2023-05-03T06:02:46.689Z,102602.63
2023-05-03T06:05:18.436Z,102608.25
2023-05-03T06:07:45.488Z,102612.75
2023-05-03T06:10:12.388Z,102613.81
2023-05-03T06:12:43.445Z,102618.34
2023-05-03T06:15:16.012Z,102614.22
2023-05-03T06:17:45.250Z,102620.38
2023-05-03T06:20:12.230Z,102625.09
2023-05-03T06:22:40.577Z,102626.19
2023-05-03T06:25:08.767Z,102630.88
2023-05-03T06:27:38.308Z,102621.44
2023-05-03T06:30:06.976Z,102618.22
2023-05-03T06:32:34.383Z,102621.41
2023-05-03T06:35:02.233Z,102624.41
2023-05-03T06:37:29.230Z,102627.38
2023-05-03T06:39:56.316Z,102630.56
2023-05-03T06:42:23.814Z,102631.94
2023-05-03T06:45:03.714Z,102628.88
2023-05-03T06:47:30.690Z,102607.13
2023-05-03T06:49:57.588Z,102626.94
2023-05-03T06:52:24.516Z,102624.56
2023-05-03T06:54:52.016Z,102625.66
2023-05-03T06:57:18.852Z,102630.22
2023-05-03T06:59:45.706Z,102631.34
2023-05-03T07:02:12.608Z,102631.66
2023-05-03T07:04:39.734Z,102636.19
2023-05-03T07:07:06.781Z,102641.78
2023-05-03T07:09:42.708Z,102631.72
2023-05-03T07:12:11.181Z,102632.00
2023-05-03T07:14:39.690Z,102632.38
2023-05-03T07:17:06.647Z,102629.00
2023-05-03T07:19:33.517Z,102633.53
2023-05-03T07:22:00.561Z,102624.06
2023-05-03T07:24:27.428Z,102630.22
2023-05-03T07:26:54.364Z,102626.00
2023-05-03T07:29:21.660Z,102623.44
2023-05-03T07:31:48.958Z,102627.22
2023-05-03T07:34:16.784Z,102629.09
2023-05-03T07:36:43.697Z,102627.16
2023-05-03T07:39:10.777Z,102627.94
2023-05-03T07:41:37.614Z,102625.41
2023-05-03T07:44:04.720Z,102629.91
2023-05-03T07:46:34.905Z,102623.19
2023-05-03T07:49:04.088Z,102626.81
2023-05-03T07:51:38.307Z,102616.38
2023-05-03T07:54:05.878Z,102619.72
2023-05-03T07:56:32.807Z,102615.41
2023-05-03T07:59:09.141Z,102611.13
2023-05-03T08:01:37.804Z,102610.41
2023-05-03T08:04:05.195Z,102617.75
2023-05-03T08:06:35.396Z,102622.44
2023-05-03T08:09:02.418Z,102613.13
2023-05-03T08:11:29.343Z,102599.31
2023-05-03T08:13:56.623Z,102608.59
2023-05-03T08:16:23.799Z,102615.22
2023-05-03T08:18:50.691Z,102614.63
2023-05-03T08:21:17.698Z,102605.13
2023-05-03T08:23:45.082Z,102602.41
2023-05-03T08:26:14.198Z,102611.31
2023-05-03T08:28:41.552Z,102609.47
2023-05-03T08:31:08.672Z,102611.25
2023-05-03T08:33:35.822Z,102621.16
2023-05-03T08:36:03.043Z,102612.66
2023-05-03T08:38:30.019Z,102605.03
2023-05-03T08:40:59.787Z,102618.47
2023-05-03T08:43:28.844Z,102610.03
2023-05-03T08:45:55.947Z,102613.72
2023-05-03T08:48:23.187Z,102608.56
2023-05-03T08:50:52.709Z,102614.91
2023-05-03T08:53:19.594Z,102620.19
2023-05-03T08:55:46.479Z,102630.75
2023-05-03T08:58:13.781Z,102627.28
2023-05-03T09:00:44.747Z,102638.63
2023-05-03T09:03:12.253Z,102631.69
2023-05-03T09:05:40.499Z,102629.19
2023-05-03T09:08:13.481Z,102628.44
2023-05-03T09:10:42.130Z,102637.44
2023-05-03T09:13:10.428Z,102640.19
2023-05-03T09:15:37.527Z,102634.06
2023-05-03T09:18:21.395Z,102628.78
2023-05-03T09:20:53.238Z,102631.56
2023-05-03T09:23:29.775Z,102629.97
2023-05-03T09:25:57.852Z,102635.31
2023-05-03T09:28:26.000Z,102636.22
2023-05-03T09:31:10.829Z,102631.88
2023-05-03T09:33:39.032Z,102639.78
2023-05-03T09:36:06.545Z,102639.78
2023-05-03T09:38:36.851Z,102640.59
2023-05-03T09:41:07.097Z,102640.72
2023-05-03T09:43:38.034Z,102639.03
2023-05-03T09:46:13.263Z,102644.34
2023-05-03T09:48:41.176Z,102644.28
2023-05-03T09:51:09.689Z,102645.09
2023-05-03T09:53:38.867Z,102648.63
2023-05-03T09:56:12.534Z,102636.34
2023-05-03T09:58:41.330Z,102644.34
2023-05-03T10:01:10.540Z,102647.09
2023-05-03T10:03:50.557Z,102636.75
2023-05-03T10:06:30.144Z,102636.06
2023-05-03T10:09:16.933Z,102640.63
2023-05-03T10:11:52.336Z,102635.47
2023-05-03T10:14:22.711Z,102641.69
2023-05-03T10:16:53.867Z,102635.56
2023-05-03T10:19:34.734Z,102644.34
2023-05-03T10:22:14.566Z,102649.53
2023-05-03T10:25:08.544Z,102640.78
2023-05-03T10:27:44.494Z,102636.41
2023-05-03T10:30:28.833Z,102641.72
2023-05-03T10:32:55.842Z,102628.69
2023-05-03T10:35:27.795Z,102637.47
2023-05-03T10:37:56.976Z,102636.59
2023-05-03T10:40:23.951Z,102630.50
2023-05-03T10:42:53.920Z,102631.38
2023-05-03T10:45:28.546Z,102636.69
2023-05-03T10:48:20.569Z,102626.09
2023-05-03T10:50:47.872Z,102630.50
2023-05-03T10:53:36.017Z,102619.16
2023-05-03T10:56:15.265Z,102627.91
2023-05-03T10:58:48.795Z,102629.66
2023-05-03T11:01:18.350Z,102614.75
2023-05-03T11:04:02.962Z,102625.28
2023-05-03T11:06:38.437Z,102619.16
2023-05-03T11:09:07.103Z,102616.59
2023-05-03T11:11:37.026Z,102617.53
2023-05-03T11:14:05.708Z,102620.19
2023-05-03T11:16:32.709Z,102616.66
2023-05-03T11:19:01.259Z,102632.44
2023-05-03T11:21:28.501Z,102616.66
2023-05-03T11:23:55.409Z,102620.13
2023-05-03T11:26:26.141Z,102620.19
2023-05-03T11:28:54.502Z,102619.41
2023-05-03T11:31:22.572Z,102615.97
2023-05-03T11:33:51.075Z,102609.06
2023-05-03T11:36:17.978Z,102609.19
2023-05-03T11:38:45.772Z,102605.72
2023-05-03T11:41:17.476Z,102611.91
2023-05-03T11:43:52.983Z,102609.25
2023-05-03T11:46:28.047Z,102606.56
2023-05-03T11:48:56.051Z,102613.63
2023-05-03T11:51:24.626Z,102603.97
2023-05-03T11:53:52.222Z,102602.25
2023-05-03T11:56:20.623Z,102604.13
2023-05-03T11:58:56.987Z,102598.00
2023-05-03T12:01:25.783Z,102590.16
2023-05-03T12:04:05.459Z,102582.25
2023-05-03T12:06:36.030Z,102582.28
2023-05-03T12:09:05.234Z,102599.03
2023-05-03T12:11:44.117Z,102593.78
2023-05-03T12:14:11.719Z,102592.91
2023-05-03T12:16:51.642Z,102584.13
2023-05-03T12:19:32.886Z,102591.13
2023-05-03T12:22:18.102Z,102590.28
2023-05-03T12:24:49.784Z,102597.28
2023-05-03T12:27:19.093Z,102592.00
2023-05-03T12:29:47.649Z,102589.38
2023-05-03T12:32:15.108Z,102593.75
2023-05-03T12:34:42.864Z,102586.69
2023-05-03T12:37:11.721Z,102585.84
2023-05-03T12:39:40.093Z,102589.38
2023-05-03T12:42:09.357Z,102592.03
2023-05-03T12:44:41.893Z,102580.63
2023-05-03T12:47:10.549Z,102584.16
2023-05-03T12:49:39.214Z,102583.22
2023-05-03T12:52:35.426Z,102577.88
2023-05-03T12:54:55.577Z,102583.03
2023-05-03T12:57:24.309Z,102577.69
2023-05-03T13:00:02.240Z,102587.44
2023-05-03T13:05:00.807Z,102573.56
2023-05-03T13:07:31.754Z,102557.75
2023-05-03T13:12:30.849Z,102570.13
2023-05-03T13:14:58.051Z,102561.38
2023-05-03T13:17:25.360Z,102561.38
2023-05-03T13:19:53.731Z,102566.66
2023-05-03T13:22:20.767Z,102557.84
2023-05-03T13:24:48.270Z,102557.03
2023-05-03T13:27:16.380Z,102563.19
2023-05-03T13:29:43.392Z,102550.88
2023-05-03T13:32:10.474Z,102541.22
2023-05-03T13:34:37.481Z,102550.94
2023-05-03T13:37:04.829Z,102545.66
2023-05-03T13:39:32.530Z,102541.31
2023-05-03T13:41:59.655Z,102542.16
2023-05-03T13:44:26.590Z,102530.72
2023-05-03T13:46:53.983Z,102536.91
2023-05-03T13:49:21.134Z,102532.53
2023-05-03T13:51:48.165Z,102534.25
2023-05-03T13:54:15.053Z,102536.91
2023-05-03T13:56:42.984Z,102532.53
2023-05-03T13:59:13.810Z,102532.53
2023-05-03T14:01:43.124Z,102535.13
2023-05-03T14:04:10.460Z,102534.22
2023-05-03T14:06:40.254Z,102529.81
2023-05-03T14:09:09.168Z,102529.78
2023-05-03T14:11:36.140Z,102532.41
2023-05-03T14:14:03.708Z,102528.91
2023-05-03T14:16:40.750Z,102522.72
2023-05-03T14:19:10.795Z,102527.13
2023-05-03T14:21:38.263Z,102513.94
2023-05-03T14:24:06.431Z,102517.47
2023-05-03T14:26:34.057Z,102515.69
2023-05-03T14:29:01.495Z,102511.25
2023-05-03T14:31:28.606Z,102522.69
2023-05-03T14:33:55.545Z,102515.69
2023-05-03T14:36:22.975Z,102510.44
2023-05-03T14:38:49.958Z,102522.75
2023-05-03T14:41:17.015Z,102527.19
2023-05-03T14:43:43.922Z,102517.56
2023-05-03T14:46:10.978Z,102504.38
2023-05-03T14:48:38.265Z,102517.56
2023-05-03T14:51:05.718Z,102514.94
2023-05-03T14:53:32.675Z,102511.41
2023-05-03T14:55:59.683Z,102508.78
2023-05-03T14:58:26.681Z,102517.56
2023-05-03T15:00:53.778Z,102520.22
2023-05-03T15:03:20.786Z,102511.44
2023-05-03T15:05:49.748Z,102518.44
2023-05-03T15:08:19.666Z,102513.16
2023-05-03T15:10:47.666Z,102523.72
2023-05-03T15:13:16.208Z,102528.13
2023-05-03T15:15:43.835Z,102524.59
2023-05-03T15:18:11.594Z,102519.22
2023-05-03T15:20:39.138Z,102513.03
2023-05-03T15:23:06.625Z,102516.50
2023-05-03T15:25:33.539Z,102514.72
2023-05-03T15:28:03.747Z,102519.97
2023-05-03T15:30:32.160Z,102515.59
2023-05-03T15:32:59.209Z,102519.09
2023-05-03T15:35:26.223Z,102505.91
2023-05-03T15:37:53.124Z,102517.38
2023-05-03T15:40:21.984Z,102515.59
2023-05-03T15:42:51.806Z,102518.25
2023-05-03T15:45:18.995Z,102520.88
2023-05-03T15:47:46.172Z,102518.16
2023-05-03T15:50:13.373Z,102523.41
2023-05-03T15:52:40.508Z,102524.28
2023-05-03T15:55:09.471Z,102518.00
2023-05-03T15:57:37.179Z,102515.31
2023-05-03T16:00:15.076Z,102523.19
2023-05-03T16:02:42.489Z,102513.47
2023-05-03T16:05:11.139Z,102529.28
2023-05-03T16:07:38.072Z,102509.97
2023-05-03T16:10:06.423Z,102519.59
2023-05-03T16:12:33.676Z,102516.91
2023-05-03T16:15:00.954Z,102507.22
2023-05-03T16:17:28.101Z,102515.13
2023-05-03T16:19:55.020Z,102512.41
2023-05-03T16:22:21.906Z,102500.06
2023-05-03T16:24:48.792Z,102509.69
2023-05-03T16:27:15.777Z,102513.97
2023-05-03T16:29:42.724Z,102503.41
2023-05-03T16:32:10.967Z,102501.59
2023-05-03T16:34:38.125Z,102501.50
2023-05-03T16:37:05.521Z,102506.72
2023-05-03T16:39:32.795Z,102503.22
2023-05-03T16:41:59.797Z,102501.59
2023-05-03T16:44:26.729Z,102508.72
2023-05-03T16:46:53.616Z,102507.09
2023-05-03T16:49:20.591Z,102515.09
2023-05-03T16:51:47.503Z,102507.28
2023-05-03T16:54:16.730Z,102511.75
2023-05-03T16:56:44.475Z,102495.06
2023-05-03T16:59:11.744Z,102507.41
2023-05-03T17:01:38.700Z,102494.31
2023-05-03T17:04:06.553Z,102491.75
2023-05-03T17:06:33.640Z,102497.94
2023-05-03T17:09:00.982Z,102496.22
2023-05-03T17:11:27.864Z,102495.31
2023-05-03T17:13:55.032Z,102496.25
2023-05-03T17:16:22.900Z,102494.50
2023-05-03T17:18:50.323Z,102491.03
2023-05-03T17:21:19.004Z,102495.44
2023-05-03T17:23:46.646Z,102492.84
2023-05-03T17:26:14.209Z,102493.75
2023-05-03T17:28:41.602Z,102498.13
2023-05-03T17:31:08.557Z,102496.34
2023-05-03T17:33:36.090Z,102496.34
2023-05-03T17:36:06.599Z,102500.69
2023-05-03T17:38:34.718Z,102495.34
2023-05-03T17:41:10.290Z,102492.66
2023-05-03T17:43:37.879Z,102499.66
2023-05-03T17:46:12.845Z,102496.09
2023-05-03T17:48:47.369Z,102495.16
2023-05-03T17:51:14.898Z,102501.25
2023-05-03T17:53:43.015Z,102499.44
2023-05-03T17:56:17.972Z,102499.38
2023-05-03T17:58:45.466Z,102501.91
2023-05-03T18:01:13.445Z,102506.22
2023-05-03T18:03:43.740Z,102498.22
2023-05-03T18:06:13.240Z,102500.75
2023-05-03T18:08:41.448Z,102502.31
2023-05-03T18:11:08.565Z,102507.50
2023-05-03T18:13:36.489Z,102504.81
2023-05-03T18:16:08.164Z,102500.31
2023-05-03T18:18:35.219Z,102509.81
2023-05-03T18:21:03.958Z,102502.66
2023-05-03T18:23:32.102Z,102510.44
2023-05-03T18:25:59.872Z,102523.50
2023-05-03T18:28:27.553Z,102521.66
2023-05-03T18:30:55.923Z,102525.78
2023-05-03T18:33:23.155Z,102515.88
2023-05-03T18:35:53.762Z,102525.41
2023-05-03T18:38:21.644Z,102530.50
2023-05-03T18:40:49.805Z,102526.75
2023-05-03T18:43:16.904Z,102528.31
2023-05-03T18:45:44.410Z,102527.19
2023-05-03T18:48:11.962Z,102527.63
2023-05-03T18:50:39.318Z,102521.97
2023-05-03T18:53:06.743Z,102529.56
2023-05-03T18:55:33.718Z,102529.31
2023-05-03T18:58:01.426Z,102530.84
2023-05-03T19:00:28.449Z,102545.53
2023-05-03T19:02:55.380Z,102540.06
2023-05-03T19:05:22.292Z,102546.78
2023-05-03T19:07:49.598Z,102549.03
2023-05-03T19:10:17.343Z,102550.63
2023-05-03T19:12:44.653Z,102550.41
2023-05-03T19:15:12.211Z,102546.63
2023-05-03T19:17:41.715Z,102553.25
2023-05-03T19:20:10.319Z,102539.03
2023-05-03T19:22:37.638Z,102553.91
2023-05-03T19:25:05.831Z,102554.81
2023-05-03T19:27:33.018Z,102551.25
2023-05-03T19:29:59.891Z,102565.34
2023-05-03T19:32:26.836Z,102555.88
2023-05-03T19:34:53.769Z,102556.75
2023-05-03T19:37:20.669Z,102553.91
2023-05-03T19:39:47.570Z,102555.41
2023-05-03T19:42:14.450Z,102556.94
2023-05-03T19:44:41.333Z,102541.75
2023-05-03T19:47:08.637Z,102548.69
2023-05-03T19:49:35.593Z,102556.53
2023-05-03T19:52:04.467Z,102552.25
2023-05-03T19:54:32.862Z,102544.16
2023-05-03T19:57:07.129Z,102554.72
2023-05-03T19:59:34.093Z,102552.00
2023-05-03T20:02:01.078Z,102555.59
2023-05-03T20:04:28.107Z,102548.56
2023-05-03T20:06:56.153Z,102560.75
2023-05-03T20:09:23.518Z,102558.88
2023-05-03T20:11:58.787Z,102557.06
2023-05-03T20:14:29.224Z,102560.47
2023-05-03T20:16:57.201Z,102558.66
2023-05-03T20:19:25.389Z,102574.28
2023-05-03T20:21:52.663Z,102564.63
2023-05-03T20:24:20.935Z,102572.41
2023-05-03T20:26:47.807Z,102586.25
2023-05-03T20:29:14.990Z,102580.03
2023-05-03T20:31:41.984Z,102584.22
2023-05-03T20:34:08.980Z,102578.69
2023-05-03T20:36:35.854Z,102583.13
2023-05-03T20:39:03.129Z,102588.28
2023-05-03T20:41:30.038Z,102589.00
2023-05-03T20:43:57.175Z,102588.03
2023-05-03T20:46:24.140Z,102595.78
2023-05-03T20:48:51.669Z,102591.25
2023-05-03T20:51:18.577Z,102591.16
2023-05-03T20:53:45.477Z,102591.03
2023-05-03T20:56:12.464Z,102582.25
2023-05-03T20:58:39.367Z,102591.66
2023-05-03T21:01:07.917Z,102578.31
2023-05-03T21:03:35.224Z,102591.34
2023-05-03T21:06:02.508Z,102589.47
2023-05-03T21:08:29.443Z,102584.88
2023-05-03T21:10:56.414Z,102582.97
2023-05-03T21:13:23.366Z,102588.09
2023-05-03T21:15:50.910Z,102592.28
2023-05-03T21:18:19.293Z,102582.50
2023-05-03T21:20:46.556Z,102575.47
2023-05-03T21:23:13.444Z,102582.28
2023-05-03T21:25:40.394Z,102575.16
2023-05-03T21:28:07.358Z,102585.44
2023-05-03T21:30:34.251Z,102583.59
2023-05-03T21:33:01.219Z,102581.59
2023-05-03T21:35:28.372Z,102579.59
2023-05-03T21:37:55.254Z,102576.72
2023-05-03T21:40:22.379Z,102574.81
2023-05-03T21:42:52.390Z,102574.66
2023-05-03T21:45:19.925Z,102569.28
2023-05-03T21:47:46.947Z,102570.00
2023-05-03T21:50:14.088Z,102570.78
2023-05-03T21:52:41.135Z,102574.16
2023-05-03T21:55:08.670Z,102567.81
2023-05-03T21:57:35.623Z,102575.63
2023-05-03T22:00:02.743Z,102571.00
2023-05-03T22:02:35.471Z,102566.59
2023-05-03T22:05:02.429Z,102563.00
2023-05-03T22:07:29.312Z,102564.59
2023-05-03T22:09:56.195Z,102570.59
2023-05-03T22:12:24.597Z,102570.50
2023-05-03T22:14:52.260Z,102557.00
2023-05-03T22:17:19.180Z,102565.78
2023-05-03T22:19:46.062Z,102563.00
2023-05-03T22:22:12.972Z,102564.63
2023-05-03T22:24:40.665Z,102562.81
2023-05-03T22:27:07.776Z,102562.66
2023-05-03T22:29:34.737Z,102559.97
2023-05-03T22:32:01.790Z,102564.19
2023-05-03T22:34:29.193Z,102571.81
2023-05-03T22:36:56.367Z,102549.69
2023-05-03T22:39:23.526Z,102568.03
2023-05-03T22:41:50.450Z,102561.00
2023-05-03T22:44:17.365Z,102567.78
2023-05-03T22:46:44.266Z,102564.22
2023-05-03T22:49:11.178Z,102567.50
2023-05-03T22:51:38.520Z,102558.72
2023-05-03T22:54:05.494Z,102562.00
2023-05-03T22:56:32.427Z,102559.31
2023-05-03T22:58:59.311Z,102558.25
2023-05-03T23:01:26.919Z,102555.44
2023-05-03T23:03:54.107Z,102554.47
2023-05-03T23:06:21.137Z,102558.59
2023-05-03T23:08:48.022Z,102556.75
2023-05-03T23:11:15.086Z,102556.47
2023-05-03T23:13:42.006Z,102557.31
2023-05-03T23:16:10.220Z,102557.16
2023-05-03T23:18:37.353Z,102562.25
2023-05-03T23:21:04.412Z,102559.53
2023-05-03T23:23:31.305Z,102552.44
2023-05-03T23:25:58.237Z,102552.28
2023-05-03T23:28:25.652Z,102553.00
2023-05-03T23:30:53.072Z,102548.53
2023-05-03T23:33:20.517Z,102551.03
2023-05-03T23:35:48.821Z,102541.31
2023-05-03T23:38:15.821Z,102543.78
2023-05-03T23:40:42.735Z,102538.41
2023-05-03T23:43:09.615Z,102534.75
2023-05-03T23:45:36.508Z,102533.84
2023-05-03T23:48:03.435Z,102532.81
2023-05-03T23:50:30.760Z,102535.22
2023-05-03T23:52:58.607Z,102534.31
2023-05-03T23:55:25.897Z,102537.66
2023-05-03T23:57:52.783Z,102539.22
